createdAt,value
2018-09-14T00:02:08.480Z,17.87
2018-09-14T00:04:35.733Z,18.60
2018-09-14T00:07:03.028Z,20.48
2018-09-14T00:09:30.317Z,18.85
2018-09-14T00:11:57.567Z,21.52
2018-09-14T00:14:24.800Z,21.52
2018-09-14T00:16:52.236Z,23.30
2018-09-14T00:19:19.479Z,20.60
2018-09-14T00:21:46.783Z,19.70
2018-09-14T00:24:14.011Z,19.27
2018-09-14T00:26:41.271Z,20.75
2018-09-14T00:29:08.526Z,19.65
2018-09-14T00:31:35.750Z,20.90
2018-09-14T00:34:03.034Z,20.70
2018-09-14T00:36:30.280Z,18.60
2018-09-14T00:38:57.542Z,23.85
2018-09-14T00:41:24.776Z,20.85
2018-09-14T00:43:52.015Z,22.60
2018-09-14T00:46:19.268Z,25.45
2018-09-14T00:48:46.538Z,21.62
2018-09-14T00:51:13.765Z,22.02
2018-09-14T00:53:40.991Z,25.02
2018-09-14T00:56:08.243Z,22.50
2018-09-14T00:58:35.493Z,24.37
2018-09-14T01:01:02.740Z,23.07
2018-09-14T01:03:29.984Z,22.95
2018-09-14T01:05:57.209Z,23.87
2018-09-14T01:08:24.430Z,22.55
2018-09-14T01:10:51.646Z,24.18
2018-09-14T01:13:18.920Z,22.25
2018-09-14T01:15:46.147Z,22.65
2018-09-14T01:18:13.411Z,24.27
2018-09-14T01:20:40.642Z,22.37
2018-09-14T01:23:07.908Z,23.98
2018-09-14T01:25:35.134Z,23.20
2018-09-14T01:28:02.374Z,25.37
2018-09-14T01:30:29.620Z,27.13
2018-09-14T01:32:56.996Z,28.60
2018-09-14T01:35:29.904Z,25.72
2018-09-14T01:37:57.112Z,25.97
2018-09-14T01:40:24.336Z,28.10
2018-09-14T01:42:51.567Z,30.17
2018-09-14T01:45:18.798Z,28.50
2018-09-14T01:47:46.011Z,31.87
2018-09-14T01:50:13.256Z,34.73
2018-09-14T01:52:40.478Z,30.23
2018-09-14T01:55:07.766Z,29.15
2018-09-14T01:57:35.019Z,28.98
2018-09-14T02:00:02.423Z,29.98
2018-09-14T02:02:29.652Z,30.35
2018-09-14T02:04:56.886Z,31.73
2018-09-14T02:07:24.158Z,31.17
2018-09-14T02:09:51.427Z,33.73
2018-09-14T02:12:18.630Z,35.15
2018-09-14T02:14:46.063Z,36.25
2018-09-14T02:17:13.427Z,37.25
2018-09-14T02:19:40.659Z,38.28
2018-09-14T02:22:07.887Z,39.42
2018-09-14T02:24:35.224Z,41.23
2018-09-14T02:27:02.517Z,39.05
2018-09-14T02:29:29.825Z,41.60
2018-09-14T02:31:57.055Z,39.53
2018-09-14T02:34:24.275Z,42.15
2018-09-14T02:36:51.596Z,39.73
2018-09-14T02:39:18.818Z,44.65
2018-09-14T02:41:46.187Z,44.38
2018-09-14T02:44:13.415Z,41.37
2018-09-14T02:46:40.640Z,45.52
2018-09-14T02:49:07.858Z,42.58
2018-09-14T02:51:35.066Z,42.60
2018-09-14T02:54:02.338Z,42.05
2018-09-14T02:56:29.552Z,46.00
2018-09-14T02:58:56.816Z,43.58
2018-09-14T03:01:24.047Z,44.13
2018-09-14T03:03:51.294Z,41.83
2018-09-14T03:06:18.524Z,46.20
2018-09-14T03:08:46.274Z,49.50
2018-09-14T03:11:13.588Z,45.88
2018-09-14T03:13:40.828Z,43.15
2018-09-14T03:16:08.068Z,43.73
2018-09-14T03:18:35.364Z,48.13
2018-09-14T03:21:02.744Z,47.80
2018-09-14T03:23:30.075Z,43.55
2018-09-14T03:25:57.612Z,48.15
2018-09-14T03:28:24.962Z,47.30
2018-09-14T03:30:52.291Z,49.27
2018-09-14T03:33:19.499Z,45.67
2018-09-14T03:35:46.740Z,48.83
2018-09-14T03:38:14.022Z,48.35
2018-09-14T03:40:41.259Z,45.55
2018-09-14T03:43:08.540Z,53.65
2018-09-14T03:45:35.836Z,51.20
2018-09-14T03:48:03.108Z,54.73
2018-09-14T03:50:30.415Z,52.53
2018-09-14T03:52:57.663Z,49.25
2018-09-14T03:55:24.919Z,51.83
2018-09-14T03:57:52.127Z,48.90
2018-09-14T04:00:19.375Z,49.67
2018-09-14T04:02:46.666Z,53.13
2018-09-14T04:05:13.984Z,54.98
2018-09-14T04:07:41.580Z,48.98
2018-09-14T04:10:08.683Z,51.02
2018-09-14T04:12:35.939Z,53.20
2018-09-14T04:15:03.215Z,55.35
2018-09-14T04:17:30.584Z,52.53
2018-09-14T04:19:57.967Z,54.05
2018-09-14T04:22:25.309Z,54.03
2018-09-14T04:24:52.514Z,57.70
2018-09-14T04:27:19.737Z,53.42
2018-09-14T04:29:47.062Z,55.10
2018-09-14T04:32:14.376Z,58.80
2018-09-14T04:34:41.620Z,56.95
2018-09-14T04:37:08.873Z,58.92
2018-09-14T04:39:36.188Z,57.10
2018-09-14T04:42:03.536Z,58.25
2018-09-14T04:44:30.835Z,54.83
2018-09-14T04:46:58.108Z,55.03
2018-09-14T04:49:25.431Z,53.52
2018-09-14T04:51:52.639Z,54.85
2018-09-14T04:54:19.851Z,56.40
2018-09-14T04:56:47.177Z,57.35
2018-09-14T04:59:14.529Z,57.80
2018-09-14T05:01:41.853Z,55.67
2018-09-14T05:04:09.205Z,56.20
2018-09-14T05:06:36.723Z,58.45
2018-09-14T05:09:05.776Z,56.50
2018-09-14T05:11:33.123Z,55.78
2018-09-14T05:14:00.475Z,56.23
2018-09-14T05:16:27.700Z,59.33
2018-09-14T05:18:54.969Z,57.98
2018-09-14T05:21:22.256Z,57.38
2018-09-14T05:23:49.548Z,53.90
2018-09-14T05:26:16.756Z,55.55
2018-09-14T05:28:44.027Z,59.33
2018-09-14T05:31:11.324Z,58.95
2018-09-14T05:33:38.648Z,54.80
2018-09-14T05:36:05.909Z,55.28
2018-09-14T05:38:33.179Z,57.58
2018-09-14T05:41:01.428Z,60.17
2018-09-14T05:43:28.788Z,59.50
2018-09-14T05:45:56.129Z,58.63
2018-09-14T05:48:23.425Z,58.90
2018-09-14T05:50:50.731Z,59.10
2018-09-14T05:53:17.972Z,54.95
2018-09-14T05:55:45.263Z,57.65
2018-09-14T05:58:12.490Z,54.20
2018-09-14T06:00:39.795Z,54.80
2018-09-14T06:03:07.070Z,54.85
2018-09-14T06:05:34.291Z,58.02
2018-09-14T06:08:01.596Z,58.92
2018-09-14T06:10:28.908Z,55.80
2018-09-14T06:12:56.145Z,58.25
2018-09-14T06:15:23.559Z,54.90
2018-09-14T06:17:50.837Z,57.98
2018-09-14T06:20:18.171Z,58.58
2018-09-14T06:22:45.506Z,56.45
2018-09-14T06:25:12.799Z,53.38
2018-09-14T06:27:40.022Z,52.25
2018-09-14T06:30:07.356Z,57.58
2018-09-14T06:32:34.571Z,86.53
2018-09-14T06:35:01.856Z,79.80
2018-09-14T06:37:29.148Z,85.97
2018-09-14T06:39:56.403Z,73.40
2018-09-14T06:42:23.619Z,104.80
2018-09-14T06:44:51.145Z,122.67
2018-09-14T06:47:18.343Z,154.50
2018-09-14T06:49:45.704Z,139.77
2018-09-14T06:52:12.984Z,144.25
2018-09-14T06:54:40.247Z,112.55
2018-09-14T06:57:07.555Z,129.32
2018-09-14T06:59:34.931Z,119.85
2018-09-14T07:02:02.170Z,129.70
2018-09-14T07:04:29.549Z,70.47
2018-09-14T07:06:56.915Z,94.72
2018-09-14T07:09:24.172Z,63.58
2018-09-14T07:11:51.557Z,53.23
2018-09-14T07:14:18.827Z,49.90
2018-09-14T07:16:46.224Z,54.73
2018-09-14T07:19:13.528Z,55.00
2018-09-14T07:21:40.907Z,62.08
2018-09-14T07:24:08.177Z,68.12
2018-09-14T07:26:35.540Z,69.72
2018-09-14T07:29:02.881Z,52.83
2018-09-14T07:31:30.122Z,42.08
2018-09-14T07:33:57.403Z,41.55
2018-09-14T07:36:24.799Z,38.45
2018-09-14T07:38:51.984Z,37.28
2018-09-14T07:41:19.328Z,38.42
2018-09-14T07:43:48.180Z,34.95
2018-09-14T07:46:15.495Z,37.58
2018-09-14T07:48:42.812Z,35.55
2018-09-14T07:51:10.207Z,34.25
2018-09-14T07:53:37.614Z,34.55
2018-09-14T07:56:05.039Z,33.35
2018-09-14T07:58:32.405Z,32.23
2018-09-14T08:00:59.719Z,30.37
2018-09-14T08:03:26.986Z,32.50
2018-09-14T08:05:54.272Z,29.40
2018-09-14T08:08:21.583Z,28.98
2018-09-14T08:10:48.896Z,26.17
2018-09-14T08:13:16.271Z,27.48
2018-09-14T08:15:43.596Z,28.83
2018-09-14T08:18:10.892Z,26.25
2018-09-14T08:20:38.580Z,28.02
2018-09-14T08:23:05.912Z,26.55
2018-09-14T08:25:33.276Z,22.93
2018-09-14T08:28:00.527Z,20.48
2018-09-14T08:30:28.900Z,19.98
2018-09-14T08:32:56.205Z,20.68
2018-09-14T08:35:23.531Z,21.55
2018-09-14T08:37:50.855Z,19.40
2018-09-14T08:40:18.194Z,20.35
2018-09-14T08:42:46.707Z,19.07
2018-09-14T08:45:14.472Z,18.45
2018-09-14T08:47:41.810Z,19.95
2018-09-14T08:50:09.171Z,21.20
2018-09-14T08:52:36.495Z,19.50
2018-09-14T08:55:03.852Z,19.32
2018-09-14T08:57:31.228Z,19.07
2018-09-14T08:59:59.338Z,21.90
2018-09-14T09:02:26.719Z,21.57
2018-09-14T09:05:01.248Z,19.48
2018-09-14T09:07:28.663Z,18.90
2018-09-14T09:09:57.392Z,21.42
2018-09-14T09:12:24.793Z,22.50
2018-09-14T09:14:52.138Z,24.55
2018-09-14T09:17:21.220Z,22.30
2018-09-14T09:19:48.720Z,22.85
2018-09-14T09:22:16.065Z,24.15
2018-09-14T09:24:43.402Z,22.85
2018-09-14T09:27:11.145Z,21.33
2018-09-14T09:29:38.463Z,21.85
2018-09-14T09:32:07.769Z,23.20
2018-09-14T09:34:36.300Z,25.43
2018-09-14T09:37:03.700Z,21.97
2018-09-14T09:39:30.989Z,25.75
2018-09-14T09:41:58.263Z,23.45
2018-09-14T09:44:25.591Z,22.40
2018-09-14T09:46:52.932Z,22.15
2018-09-14T09:49:20.236Z,20.75
2018-09-14T09:51:47.545Z,19.05
2018-09-14T09:54:14.840Z,17.90
2018-09-14T09:56:42.109Z,17.37
2018-09-14T09:59:09.403Z,18.65
2018-09-14T10:01:41.279Z,15.88
2018-09-14T10:04:14.200Z,15.70
2018-09-14T10:06:41.532Z,16.85
2018-09-14T10:09:09.039Z,16.35
2018-09-14T10:11:36.432Z,17.15
2018-09-14T10:14:04.122Z,19.12
2018-09-14T10:16:31.375Z,16.45
2018-09-14T10:18:58.761Z,16.27
2018-09-14T10:21:26.179Z,17.65
2018-09-14T10:23:53.705Z,18.15
2018-09-14T10:26:21.003Z,19.17
2018-09-14T10:28:48.416Z,20.72
2018-09-14T10:31:15.745Z,19.25
2018-09-14T10:33:43.137Z,18.30
2018-09-14T10:36:10.431Z,18.67
2018-09-14T10:38:37.727Z,16.97
2018-09-14T10:41:05.082Z,19.00
2018-09-14T10:43:32.431Z,18.57
2018-09-14T10:45:59.721Z,18.00
2018-09-14T10:48:26.990Z,18.57
2018-09-14T10:50:54.255Z,18.32
2018-09-14T10:53:21.522Z,18.92
2018-09-14T10:55:48.910Z,20.15
2018-09-14T10:58:16.295Z,14.87
2018-09-14T11:00:44.026Z,14.30
2018-09-14T11:03:11.309Z,12.90
2018-09-14T11:05:38.602Z,12.60
2018-09-14T11:08:05.886Z,13.25
2018-09-14T11:10:33.334Z,11.78
2018-09-14T11:13:00.634Z,12.73
2018-09-14T11:15:30.652Z,10.28
2018-09-14T11:17:59.996Z,9.15
2018-09-14T11:20:29.458Z,11.15
2018-09-14T11:22:56.696Z,12.55
2018-09-14T11:25:24.242Z,12.98
2018-09-14T11:27:51.410Z,13.08
2018-09-14T11:30:18.652Z,13.48
2018-09-14T11:32:45.964Z,12.00
2018-09-14T11:35:13.337Z,12.05
2018-09-14T11:37:40.715Z,13.58
2018-09-14T11:40:08.021Z,13.30
2018-09-14T11:42:35.293Z,13.98
2018-09-14T11:45:02.603Z,14.53
2018-09-14T11:47:29.851Z,14.65
2018-09-14T11:49:57.123Z,14.28
2018-09-14T11:52:24.652Z,15.68
2018-09-14T11:54:51.967Z,14.43
2018-09-14T11:57:19.234Z,13.75
2018-09-14T11:59:46.495Z,14.83
2018-09-14T12:02:13.870Z,14.43
2018-09-14T12:04:41.160Z,15.85
2018-09-14T12:07:08.407Z,14.50
2018-09-14T12:09:35.671Z,14.28
2018-09-14T12:12:02.958Z,12.33
2018-09-14T12:14:30.192Z,13.80
2018-09-14T12:16:59.515Z,12.90
2018-09-14T12:19:26.816Z,11.65
2018-09-14T12:21:54.048Z,11.40
2018-09-14T12:24:21.879Z,10.72
2018-09-14T12:26:49.132Z,10.80
2018-09-14T12:29:16.446Z,9.58
2018-09-14T12:31:43.875Z,8.60
2018-09-14T12:34:11.174Z,8.60
2018-09-14T12:36:38.455Z,8.15
2018-09-14T12:39:06.411Z,7.83
2018-09-14T12:41:33.748Z,7.90
2018-09-14T12:44:01.021Z,8.10
2018-09-14T12:46:28.389Z,7.65
2018-09-14T12:48:55.710Z,7.90
2018-09-14T12:51:22.998Z,8.80
2018-09-14T12:53:50.234Z,7.65
2018-09-14T12:56:17.515Z,8.65
2018-09-14T12:58:44.847Z,8.95
2018-09-14T13:01:12.161Z,7.47
2018-09-14T13:03:39.419Z,7.65
2018-09-14T13:06:06.708Z,7.78
2018-09-14T13:08:33.994Z,7.65
2018-09-14T13:11:01.219Z,7.55
2018-09-14T13:13:29.336Z,6.90
2018-09-14T13:15:56.704Z,7.25
2018-09-14T13:18:24.899Z,7.92
2018-09-14T13:20:52.137Z,6.40
2018-09-14T13:23:19.435Z,6.40
2018-09-14T13:25:46.754Z,6.25
2018-09-14T13:28:14.061Z,6.60
2018-09-14T13:30:41.280Z,6.65
2018-09-14T13:33:08.607Z,6.45
2018-09-14T13:35:36.128Z,7.03
2018-09-14T13:38:03.438Z,7.15
2018-09-14T13:40:30.691Z,8.05
2018-09-14T13:42:58.104Z,7.85
2018-09-14T13:45:25.351Z,7.50
2018-09-14T13:47:52.609Z,8.00
2018-09-14T13:50:19.963Z,7.50
2018-09-14T13:52:47.279Z,8.65
2018-09-14T13:55:14.532Z,8.18
2018-09-14T13:57:41.800Z,9.23
2018-09-14T14:00:09.088Z,7.08
2018-09-14T14:02:36.376Z,8.55
2018-09-14T14:05:03.678Z,6.87
2018-09-14T14:07:31.055Z,9.18
2018-09-14T14:09:58.347Z,7.42
2018-09-14T14:12:26.743Z,7.03
2018-09-14T14:14:54.034Z,7.40
2018-09-14T14:17:21.383Z,7.70
2018-09-14T14:19:48.600Z,8.20
2018-09-14T14:22:15.852Z,8.63
2018-09-14T14:24:43.106Z,8.18
2018-09-14T14:27:10.372Z,8.05
2018-09-14T14:29:37.663Z,8.90
2018-09-14T14:32:04.992Z,9.23
2018-09-14T14:34:32.228Z,10.28
2018-09-14T14:36:59.628Z,25.50
2018-09-14T14:39:26.878Z,12.78
2018-09-14T14:41:54.214Z,11.35
2018-09-14T14:44:21.524Z,17.73
2018-09-14T14:46:48.771Z,12.00
2018-09-14T14:49:16.057Z,14.87
2018-09-14T14:51:43.499Z,10.65
2018-09-14T14:54:10.741Z,11.73
2018-09-14T14:56:38.958Z,9.68
2018-09-14T14:59:06.223Z,10.60
2018-09-14T15:01:33.539Z,9.98
2018-09-14T15:04:00.795Z,11.57
2018-09-14T15:06:28.043Z,11.03
2018-09-14T15:08:55.283Z,9.45
2018-09-14T15:11:22.596Z,13.00
2018-09-14T15:13:49.839Z,10.70
2018-09-14T15:16:17.091Z,10.88
2018-09-14T15:18:44.377Z,10.15
2018-09-14T15:21:11.711Z,10.15
2018-09-14T15:23:38.951Z,10.78
2018-09-14T15:26:06.195Z,10.65
2018-09-14T15:28:33.419Z,11.20
2018-09-14T15:31:00.662Z,9.95
2018-09-14T15:33:27.878Z,9.68
2018-09-14T15:35:55.138Z,10.55
2018-09-14T15:38:22.349Z,10.48
2018-09-14T15:40:49.574Z,13.00
2018-09-14T15:43:16.858Z,12.20
2018-09-14T15:45:44.075Z,10.72
2018-09-14T15:48:11.350Z,10.78
2018-09-14T15:50:38.616Z,13.45
2018-09-14T15:53:05.902Z,12.53
2018-09-14T15:55:33.131Z,9.73
2018-09-14T15:58:00.646Z,9.63
2018-09-14T16:00:27.912Z,10.10
2018-09-14T16:02:55.121Z,12.25
2018-09-14T16:05:22.355Z,12.00
2018-09-14T16:07:49.917Z,9.60
2018-09-14T16:10:17.139Z,10.48
2018-09-14T16:12:44.468Z,11.95
2018-09-14T16:15:11.970Z,11.33
2018-09-14T16:17:39.223Z,12.05
2018-09-14T16:20:06.586Z,11.93
2018-09-14T16:22:34.227Z,12.37
2018-09-14T16:25:01.443Z,11.33
2018-09-14T16:27:28.703Z,10.68
2018-09-14T16:29:55.915Z,11.40
2018-09-14T16:32:23.108Z,10.50
2018-09-14T16:34:50.392Z,10.30
2018-09-14T16:37:17.620Z,9.30
2018-09-14T16:39:44.819Z,9.88
2018-09-14T16:42:12.047Z,10.25
2018-09-14T16:44:39.678Z,10.48
2018-09-14T16:47:07.381Z,11.05
2018-09-14T16:49:34.634Z,10.65
2018-09-14T16:52:01.863Z,12.40
2018-09-14T16:54:30.335Z,13.43
2018-09-14T16:56:57.772Z,10.65
2018-09-14T16:59:25.016Z,10.95
2018-09-14T17:01:52.300Z,13.25
2018-09-14T17:04:19.544Z,15.08
2018-09-14T17:06:46.779Z,12.37
2018-09-14T17:09:14.030Z,11.48
2018-09-14T17:11:41.287Z,11.20
2018-09-14T17:14:08.575Z,13.85
2018-09-14T17:16:36.211Z,12.15
2018-09-14T17:19:03.463Z,13.65
2018-09-14T17:21:30.771Z,11.60
2018-09-14T17:23:57.963Z,14.28
2018-09-14T17:26:25.187Z,12.05
2018-09-14T17:28:52.411Z,11.60
2018-09-14T17:31:19.658Z,10.82
2018-09-14T17:33:46.874Z,10.48
2018-09-14T17:36:14.115Z,12.23
2018-09-14T17:38:41.344Z,12.40
2018-09-14T17:41:08.589Z,10.48
2018-09-14T17:43:35.839Z,12.85
2018-09-14T17:46:03.095Z,11.90
2018-09-14T17:48:30.331Z,10.08
2018-09-14T17:50:57.583Z,8.98
2018-09-14T17:53:24.807Z,9.50
2018-09-14T17:55:52.190Z,9.60
2018-09-14T17:58:19.435Z,11.95
2018-09-14T18:00:46.690Z,9.90
2018-09-14T18:03:13.976Z,10.10
2018-09-14T18:05:41.160Z,9.68
2018-09-14T18:08:08.419Z,9.35
2018-09-14T18:10:35.621Z,10.72
2018-09-14T18:13:02.862Z,11.05
2018-09-14T18:15:30.678Z,13.22
2018-09-14T18:17:57.892Z,10.63
2018-09-14T18:20:25.095Z,10.98
2018-09-14T18:22:52.415Z,11.03
2018-09-14T18:25:19.658Z,9.30
2018-09-14T18:27:47.058Z,11.20
2018-09-14T18:30:14.143Z,12.28
2018-09-14T18:32:41.342Z,10.25
2018-09-14T18:35:08.587Z,13.75
2018-09-14T18:37:35.854Z,10.35
2018-09-14T18:40:03.127Z,13.68
2018-09-14T18:42:30.340Z,11.03
2018-09-14T18:44:57.571Z,11.20
2018-09-14T18:47:24.794Z,12.25
2018-09-14T18:49:52.025Z,10.75
2018-09-14T18:52:19.231Z,10.68
2018-09-14T18:54:46.448Z,11.48
2018-09-14T18:57:13.658Z,9.73
2018-09-14T18:59:40.927Z,10.15
2018-09-14T19:02:08.627Z,10.70
2018-09-14T19:04:36.119Z,11.65
2018-09-14T19:07:12.392Z,12.10
2018-09-14T19:09:39.596Z,10.08
2018-09-14T19:12:07.976Z,10.10
2018-09-14T19:14:39.392Z,11.55
2018-09-14T19:17:09.254Z,12.68
2018-09-14T19:19:46.765Z,11.40
2018-09-14T19:22:15.100Z,10.48
2018-09-14T19:24:44.767Z,16.10
2018-09-14T19:27:11.915Z,13.55
2018-09-14T19:29:40.869Z,12.03
2018-09-14T19:32:09.622Z,11.40
2018-09-14T19:34:37.011Z,13.05
2018-09-14T19:37:05.486Z,11.73
2018-09-14T19:39:33.435Z,11.05
2018-09-14T19:42:00.852Z,10.30
2018-09-14T19:44:29.724Z,11.33
2018-09-14T19:46:57.079Z,10.85
2018-09-14T19:49:25.945Z,10.13
2018-09-14T19:51:53.227Z,11.40
2018-09-14T19:54:20.499Z,11.15
2018-09-14T19:56:47.763Z,11.63
2018-09-14T19:59:15.058Z,11.28
2018-09-14T20:01:42.309Z,10.55
2018-09-14T20:04:13.160Z,12.30
2018-09-14T20:06:41.728Z,13.55
2018-09-14T20:09:18.646Z,12.23
2018-09-14T20:11:48.261Z,11.43
2018-09-14T20:14:21.938Z,11.03
2018-09-14T20:16:51.793Z,12.80
2018-09-14T20:19:24.704Z,12.73
2018-09-14T20:21:55.517Z,11.35
2018-09-14T20:24:23.833Z,12.40
2018-09-14T20:26:58.846Z,13.98
2018-09-14T20:29:27.957Z,13.13
2018-09-14T20:31:59.236Z,13.80
2018-09-14T20:37:27.550Z,11.53
2018-09-14T20:39:55.801Z,11.03
2018-09-14T20:42:24.128Z,13.50
2018-09-14T20:44:51.444Z,11.68
2018-09-14T20:47:21.157Z,12.37
2018-09-14T20:49:48.636Z,12.78
2018-09-14T20:52:24.630Z,12.03
2018-09-14T20:54:51.907Z,13.40
2018-09-14T20:57:20.495Z,12.65
2018-09-14T20:59:48.848Z,12.85
2018-09-14T21:02:19.619Z,13.43
2018-09-14T21:04:48.447Z,13.18
2018-09-14T21:07:15.706Z,13.62
2018-09-14T21:09:43.410Z,15.20
2018-09-14T21:12:10.707Z,16.17
2018-09-14T21:14:38.070Z,14.58
2018-09-14T21:17:05.471Z,17.07
2018-09-14T21:19:36.124Z,13.32
2018-09-14T21:22:03.505Z,13.08
2018-09-14T21:24:38.270Z,13.08
2018-09-14T21:27:09.373Z,13.53
2018-09-14T21:29:38.448Z,15.43
2018-09-14T21:32:05.871Z,12.18
2018-09-14T21:34:33.241Z,12.73
2018-09-14T21:37:00.578Z,12.78
2018-09-14T21:39:28.673Z,13.50
2018-09-14T21:41:57.900Z,13.18
2018-09-14T21:44:25.860Z,15.13
2018-09-14T21:46:58.091Z,16.80
2018-09-14T21:49:26.891Z,12.18
2018-09-14T21:51:54.155Z,13.60
2018-09-14T21:54:23.177Z,15.90
2018-09-14T21:56:50.535Z,14.98
2018-09-14T21:59:18.583Z,13.50
2018-09-14T22:01:45.883Z,15.28
2018-09-14T22:04:13.284Z,13.95
2018-09-14T22:06:41.949Z,15.45
2018-09-14T22:09:09.299Z,15.63
2018-09-14T22:11:36.643Z,14.55
2018-09-14T22:14:04.520Z,13.28
2018-09-14T22:16:32.973Z,13.20
2018-09-14T22:19:00.258Z,14.80
2018-09-14T22:21:27.567Z,13.13
2018-09-14T22:23:54.806Z,15.63
2018-09-14T22:26:22.064Z,13.95
2018-09-14T22:28:49.338Z,13.88
2018-09-14T22:31:16.650Z,14.28
2018-09-14T22:33:43.927Z,14.25
2018-09-14T22:36:11.174Z,16.95
2018-09-14T22:38:38.508Z,15.13
2018-09-14T22:41:05.770Z,18.42
2018-09-14T22:43:32.980Z,15.32
2018-09-14T22:46:00.282Z,15.15
2018-09-14T22:48:27.677Z,13.90
2018-09-14T22:50:54.908Z,13.48
2018-09-14T22:53:22.136Z,16.07
2018-09-14T22:55:49.455Z,13.72
2018-09-14T22:58:16.688Z,13.32
2018-09-14T23:01:16.749Z,13.90
2018-09-14T23:03:44.427Z,13.90
2018-09-14T23:06:11.815Z,13.95
2018-09-14T23:08:39.014Z,17.82
2018-09-14T23:11:06.631Z,15.60
2018-09-14T23:13:33.891Z,16.80
2018-09-14T23:16:01.302Z,16.10
2018-09-14T23:18:29.385Z,15.13
2018-09-14T23:20:56.802Z,15.80
2018-09-14T23:23:24.061Z,14.10
2018-09-14T23:25:53.070Z,14.80
2018-09-14T23:28:20.520Z,15.83
2018-09-14T23:30:47.839Z,15.13
2018-09-14T23:33:15.145Z,16.23
2018-09-14T23:35:42.437Z,15.15
2018-09-14T23:38:09.662Z,19.95
2018-09-14T23:40:36.938Z,16.48
2018-09-14T23:43:04.179Z,18.55
2018-09-14T23:45:31.386Z,17.15
2018-09-14T23:47:58.615Z,16.75
2018-09-14T23:50:25.826Z,17.90
2018-09-14T23:52:53.039Z,16.85
2018-09-14T23:55:20.268Z,15.95
2018-09-14T23:57:47.515Z,16.93
